Hessle, United Kingdom
Current Conditions -  °F | °C
As of 3:20 AM on Friday 28 Nov 2014 (Local Time) from EGNJ Reporting Station
Haze Haze  
Wind Chill: 50°   Ceiling: 1700
Heat Index: 50°   Visibility: 1.6mi
Dew Point: 50°   Wind: 8mph
Humidity: 100%   Direction: 90°E
Pressure: 29.65"   Gusts: NA
Location:  53.72°N, 0.43°W
Report Text: EGNJ 280320Z AUTO 09007KT 2700 BR FEW013/// BKN017/// OVC043/// 10/10 Q1004
Loading
Personal Weather Stations






























Interactive Weather Map New forecast layout! Learn more

10-Day Weather Forecast

Advertisements
Track Severe Weather on mobile